Akane — H3UD — position and weather

sailwx.info

Track history (hours):
 
Tides and Currents Weather Stations Pressure Air Temp Water Temp Dewpoint Dewpoint Depression Visibility Wind Speed Wind Dir Waves Ship Positions

Akane

Last reported at 2016-Jul-21 11:07 UTC. Time now 2016-Jul-24 01:00 UTC.
Position N 35°26' E 141°01'.

Length 180 m; draft 8.3 m.

Type: Tanker. MMSI: 353172000.

Date/timePositionNaut miles runAvg speedWind from/ knotsBaromVisibWave heightAir tempDewpointWater temp
2016-Jul-21 11:07N 35°26' E 141°01'814.7
2016-Jul-21 10:33N 35°20' E 140°54'1513.7
2016-Jul-21 09:27N 35°08' E 140°42'1612.7
2016-Jul-21 08:11N 34°56' E 140°29'812.9
2016-Jul-21 07:33N 34°51' E 140°20'1212.3
2016-Jul-21 06:33N 34°44' E 140°09'1312.5
2016-Jul-21 05:33N 34°37' E 139°57'24911.6
2016-Jul-20 08:06N 33°58' E 134°58'713.4
2016-Jul-20 07:33N 34°05' E 134°57'1313.2
2016-Jul-20 06:34N 34°18' E 134°58'1413.9
2016-Jul-20 05:33N 34°28' E 135°10'1212.3
2016-Jul-20 04:33N 34°33' E 135°24'2 0.3
2016-Jul-19 21:07N 34°34' E 135°26'0 0.0
2016-Jul-19 20:25N 34°34' E 135°26'0 0.0
2016-Jul-19 19:25N 34°34' E 135°26'0 0.0
2016-Jul-19 18:19N 34°34' E 135°26'1 0.1
2016-Jul-19 04:33N 34°33' E 135°25'4 3.6
2016-Jul-19 03:30N 34°34' E 135°21'0 0.0
2016-Jul-19 01:33N 34°34' E 135°21'0 0.0
2016-Jul-19 00:27N 34°34' E 135°20'0 0.2
2016-Jul-18 23:30N 34°34' E 135°21'8 8.1
2016-Jul-18 22:33N 34°31' E 135°12'1413.7
2016-Jul-18 21:33N 34°20' E 135°02'1111.4
2016-Jul-18 20:33N 34°09' E 134°59'1111.4
2016-Jul-18 19:33N 33°58' E 134°58'  
Track history (hours):
 
Tides and Currents Weather Stations Pressure Air Temp Water Temp Dewpoint Dewpoint Depression Visibility Wind Speed Wind Dir Waves Ship Positions

Akane

Last reported at 2016-Jul-21 11:07 UTC. Time now 2016-Jul-24 01:00 UTC.
Position N 35°26' E 141°01'.

Length 180 m; draft 8.3 m.

Type: Tanker. MMSI: 353172000.

Date/timePositionNaut miles runAvg speedWind from/ knotsBaromVisibWave heightAir tempDewpointWater temp
2016-Jul-21 11:07N 35°26' E 141°01'814.7
2016-Jul-21 10:33N 35°20' E 140°54'1513.7
2016-Jul-21 09:27N 35°08' E 140°42'1612.7
2016-Jul-21 08:11N 34°56' E 140°29'812.9
2016-Jul-21 07:33N 34°51' E 140°20'1212.3
2016-Jul-21 06:33N 34°44' E 140°09'1312.5
2016-Jul-21 05:33N 34°37' E 139°57'24911.6
2016-Jul-20 08:06N 33°58' E 134°58'713.4
2016-Jul-20 07:33N 34°05' E 134°57'1313.2
2016-Jul-20 06:34N 34°18' E 134°58'1413.9
2016-Jul-20 05:33N 34°28' E 135°10'1212.3
2016-Jul-20 04:33N 34°33' E 135°24'2 0.3
2016-Jul-19 21:07N 34°34' E 135°26'0 0.0
2016-Jul-19 20:25N 34°34' E 135°26'0 0.0
2016-Jul-19 19:25N 34°34' E 135°26'0 0.0
2016-Jul-19 18:19N 34°34' E 135°26'1 0.1
2016-Jul-19 04:33N 34°33' E 135°25'4 3.6
2016-Jul-19 03:30N 34°34' E 135°21'0 0.0
2016-Jul-19 01:33N 34°34' E 135°21'0 0.0
2016-Jul-19 00:27N 34°34' E 135°20'0 0.2
2016-Jul-18 23:30N 34°34' E 135°21'8 8.1
2016-Jul-18 22:33N 34°31' E 135°12'1413.7
2016-Jul-18 21:33N 34°20' E 135°02'1111.4
2016-Jul-18 20:33N 34°09' E 134°59'1111.4
2016-Jul-18 19:33N 33°58' E 134°58'  

Dump ship's entire track history